createdAt,value
2018-07-13T00:00:31.811Z,1015.88
2018-07-13T00:01:31.769Z,1015.91
2018-07-13T00:02:31.644Z,1015.91
2018-07-13T00:05:13.788Z,1015.93
2018-07-13T00:06:13.733Z,1015.94
2018-07-13T00:07:13.634Z,1015.91
2018-07-13T00:08:13.540Z,1015.89
2018-07-13T00:09:13.459Z,1015.90
2018-07-13T00:10:13.387Z,1015.87
2018-07-13T00:11:13.309Z,1015.91
2018-07-13T00:12:13.282Z,1015.88
2018-07-13T00:13:13.148Z,1015.91
2018-07-13T00:14:13.077Z,1015.88
2018-07-13T00:15:12.988Z,1015.85
2018-07-13T00:16:12.933Z,1015.88
2018-07-13T00:17:12.859Z,1015.95
2018-07-13T00:18:12.759Z,1015.90
2018-07-13T00:19:12.675Z,1015.87
2018-07-13T00:20:12.605Z,1015.91
2018-07-13T00:21:12.518Z,1015.90
2018-07-13T00:22:13.481Z,1015.95
2018-07-13T00:23:12.361Z,1015.97
2018-07-13T00:24:12.291Z,1015.97
2018-07-13T00:26:54.320Z,1015.98
2018-07-13T00:27:54.222Z,1016.01
2018-07-13T00:28:54.130Z,1016.01
2018-07-13T00:29:54.073Z,1016.02
2018-07-13T00:30:53.978Z,1016.04
2018-07-13T00:31:53.890Z,1016.03
2018-07-13T00:32:53.835Z,1016.00
2018-07-13T00:33:53.727Z,1016.05
2018-07-13T00:34:53.664Z,1016.00
2018-07-13T00:35:53.574Z,1016.05
2018-07-13T00:36:53.497Z,1016.04
2018-07-13T00:37:53.437Z,1016.02
2018-07-13T00:40:35.308Z,1016.03
2018-07-13T00:41:35.207Z,1016.02
2018-07-13T00:42:35.134Z,1016.01
2018-07-13T00:43:35.080Z,1016.04
2018-07-13T00:44:35.009Z,1016.01
2018-07-13T00:45:34.903Z,1016.00
2018-07-13T00:46:34.815Z,1015.99
2018-07-13T00:47:34.766Z,1016.02
2018-07-13T00:48:34.657Z,1016.04
2018-07-13T00:49:34.582Z,1016.06
2018-07-13T00:50:34.499Z,1016.00
2018-07-13T00:53:16.804Z,1016.02
2018-07-13T00:54:16.729Z,1016.03
2018-07-13T00:55:16.630Z,1016.03
2018-07-13T00:57:58.814Z,1016.05
2018-07-13T00:58:58.720Z,1016.02
2018-07-13T00:59:58.630Z,1016.07
2018-07-13T01:00:58.567Z,1016.07
2018-07-13T01:01:58.479Z,1016.06
2018-07-13T01:02:59.422Z,1016.09
2018-07-13T01:03:58.315Z,1016.07
2018-07-13T01:04:58.246Z,1016.11
2018-07-13T01:05:58.180Z,1016.10
2018-07-13T01:06:58.089Z,1016.11
2018-07-13T01:26:21.756Z,1016.06
2018-07-13T01:27:20.642Z,1016.06
2018-07-13T01:28:20.574Z,1016.05
2018-07-13T01:29:20.509Z,1016.03
2018-07-13T01:30:20.412Z,1016.02
2018-07-13T01:31:20.322Z,1016.01
2018-07-13T01:32:20.249Z,1016.05
2018-07-13T01:33:20.171Z,1016.05
2018-07-13T01:34:21.113Z,1016.08
2018-07-13T01:35:20.008Z,1016.12
2018-07-13T01:36:19.950Z,1016.08
2018-07-13T01:37:19.850Z,1016.07
2018-07-13T01:38:19.777Z,1016.10
2018-07-13T01:39:19.700Z,1016.08
2018-07-13T01:40:19.649Z,1016.07
2018-07-13T01:41:19.549Z,1016.08
2018-07-13T01:42:19.463Z,1016.06
2018-07-13T01:43:19.378Z,1016.09
2018-07-13T01:44:19.304Z,1016.10
2018-07-13T01:45:19.243Z,1016.10
2018-07-13T01:46:19.333Z,1016.11
2018-07-13T01:47:19.087Z,1016.11
2018-07-13T01:48:18.979Z,1016.11
2018-07-13T01:49:18.904Z,1016.14
2018-07-13T01:50:18.821Z,1016.14
2018-07-13T01:51:18.777Z,1016.12
2018-07-13T01:52:18.680Z,1016.13
2018-07-13T01:53:20.330Z,1016.11
2018-07-13T01:54:18.514Z,1016.11
2018-07-13T01:55:18.423Z,1016.14
2018-07-13T01:56:19.420Z,1016.12
2018-07-13T01:57:18.496Z,1016.13
2018-07-13T01:58:18.303Z,1016.13
2018-07-13T01:59:18.426Z,1016.14
2018-07-13T02:00:18.052Z,1016.15
2018-07-13T02:01:17.981Z,1016.15
2018-07-13T02:02:17.889Z,1016.18
2018-07-13T02:03:17.786Z,1016.19
2018-07-13T02:04:17.723Z,1016.19
2018-07-13T02:05:17.639Z,1016.18
2018-07-13T02:06:17.607Z,1016.22
2018-07-13T02:07:17.477Z,1016.16
2018-07-13T02:08:17.425Z,1016.19
2018-07-13T02:09:17.326Z,1016.17
2018-07-13T02:10:17.247Z,1016.16
2018-07-13T02:11:17.173Z,1016.16
2018-07-13T02:12:17.118Z,1016.22
2018-07-13T02:13:17.033Z,1016.19
2018-07-13T02:14:16.946Z,1016.21
2018-07-13T02:15:16.859Z,1016.20
2018-07-13T02:17:58.851Z,1016.21
2018-07-13T02:18:58.742Z,1016.13
2018-07-13T02:19:58.663Z,1016.16
2018-07-13T02:20:58.578Z,1016.19
2018-07-13T02:21:58.499Z,1016.19
2018-07-13T02:22:58.431Z,1016.18
2018-07-13T02:23:58.364Z,1016.14
2018-07-13T02:24:58.265Z,1016.15
2018-07-13T02:25:58.176Z,1016.13
2018-07-13T02:28:40.350Z,1016.13
2018-07-13T02:29:40.242Z,1016.13
2018-07-13T02:30:40.152Z,1016.14
2018-07-13T02:33:22.345Z,1016.17
2018-07-13T02:34:24.240Z,1016.18
2018-07-13T02:35:22.189Z,1016.14
2018-07-13T02:38:04.325Z,1016.19
2018-07-13T02:39:04.274Z,1016.23
2018-07-13T02:40:04.162Z,1016.20
2018-07-13T02:41:04.106Z,1016.21
2018-07-13T02:42:04.000Z,1016.23
2018-07-13T02:43:03.929Z,1016.23
2018-07-13T02:44:03.847Z,1016.26
2018-07-13T02:46:45.844Z,1016.28
2018-07-13T02:47:45.747Z,1016.28
2018-07-13T02:48:45.657Z,1016.34
2018-07-13T02:49:45.610Z,1016.29
2018-07-13T02:50:45.525Z,1016.30
2018-07-13T02:51:45.426Z,1016.32
2018-07-13T02:52:45.341Z,1016.30
2018-07-13T02:53:45.275Z,1016.33
2018-07-13T02:54:45.183Z,1016.32
2018-07-13T02:55:45.133Z,1016.27
2018-07-13T02:56:45.040Z,1016.29
2018-07-13T02:59:27.334Z,1016.35
2018-07-13T03:00:28.338Z,1016.32
2018-07-13T03:01:27.165Z,1016.34
2018-07-13T03:04:09.321Z,1016.36
2018-07-13T03:05:09.318Z,1016.33
2018-07-13T03:06:09.178Z,1016.32
2018-07-13T03:07:09.093Z,1016.32
2018-07-13T03:08:09.009Z,1016.34
2018-07-13T03:09:08.946Z,1016.32
2018-07-13T03:10:08.852Z,1016.33
2018-07-13T03:11:08.809Z,1016.35
2018-07-13T03:12:08.692Z,1016.36
2018-07-13T03:13:08.620Z,1016.38
2018-07-13T03:14:08.535Z,1016.36
2018-07-13T03:15:08.479Z,1016.36
2018-07-13T03:16:08.405Z,1016.37
2018-07-13T03:19:15.839Z,1016.44
2018-07-13T03:20:15.749Z,1016.45
2018-07-13T03:21:15.703Z,1016.45
2018-07-13T03:22:15.640Z,1016.47
2018-07-13T03:23:15.523Z,1016.48
2018-07-13T03:24:15.431Z,1016.49
2018-07-13T03:25:15.362Z,1016.52
2018-07-13T03:26:15.275Z,1016.49
2018-07-13T03:27:15.292Z,1016.48
2018-07-13T03:28:15.123Z,1016.51
2018-07-13T03:30:57.338Z,1016.54
2018-07-13T03:31:57.281Z,1016.56
2018-07-13T03:32:57.178Z,1016.53
2018-07-13T03:33:57.118Z,1016.58
2018-07-13T03:34:57.050Z,1016.56
2018-07-13T03:35:56.954Z,1016.57
2018-07-13T03:36:56.885Z,1016.57
2018-07-13T03:37:57.815Z,1016.56
2018-07-13T03:38:56.702Z,1016.59
2018-07-13T03:39:56.637Z,1016.61
2018-07-13T03:40:56.541Z,1016.59
2018-07-13T03:41:56.465Z,1016.64
2018-07-13T03:42:56.420Z,1016.62
2018-07-13T03:43:56.315Z,1016.59
2018-07-13T03:44:56.226Z,1016.57
2018-07-13T03:47:38.357Z,1016.62
2018-07-13T03:50:20.347Z,1016.71
2018-07-13T03:51:20.295Z,1016.70
2018-07-13T03:52:20.181Z,1016.71
2018-07-13T03:53:20.101Z,1016.73
2018-07-13T03:54:20.024Z,1016.70
2018-07-13T04:20:01.389Z,1016.64
2018-07-13T04:21:01.280Z,1016.62
2018-07-13T04:22:01.200Z,1016.61
2018-07-13T04:23:01.124Z,1016.60
2018-07-13T04:24:01.035Z,1016.57
2018-07-13T04:25:00.976Z,1016.61
2018-07-13T04:27:42.851Z,1016.60
2018-07-13T04:28:42.789Z,1016.57
2018-07-13T04:29:42.689Z,1016.59
2018-07-13T04:30:42.741Z,1016.62
2018-07-13T04:31:42.538Z,1016.58
2018-07-13T04:32:42.509Z,1016.54
2018-07-13T04:33:42.380Z,1016.63
2018-07-13T04:34:42.329Z,1016.62
2018-07-13T04:35:42.240Z,1016.62
2018-07-13T04:36:42.145Z,1016.61
2018-07-13T04:37:42.060Z,1016.57
2018-07-13T04:38:42.002Z,1016.61
2018-07-13T04:39:41.938Z,1016.61
2018-07-13T04:40:42.898Z,1016.63
2018-07-13T04:41:41.746Z,1016.63
2018-07-13T04:42:41.690Z,1016.66
2018-07-13T04:43:42.472Z,1016.69
2018-07-13T04:46:24.481Z,1016.67
2018-07-13T04:49:05.869Z,1016.62
2018-07-13T04:50:05.924Z,1016.65
2018-07-13T04:51:05.732Z,1016.66
2018-07-13T04:52:05.637Z,1016.68
2018-07-13T04:53:05.541Z,1016.70
2018-07-13T04:54:07.472Z,1016.68
2018-07-13T04:55:05.395Z,1016.70
2018-07-13T04:56:05.339Z,1016.72
2018-07-13T04:57:05.225Z,1016.73
2018-07-13T04:58:05.165Z,1016.72
2018-07-13T04:59:05.084Z,1016.72
2018-07-13T05:00:04.997Z,1016.76
2018-07-13T05:01:04.954Z,1016.72
2018-07-13T05:02:04.834Z,1016.69
2018-07-13T05:03:04.753Z,1016.69
2018-07-13T05:04:04.697Z,1016.70
2018-07-13T05:05:04.599Z,1016.69
2018-07-13T05:06:04.612Z,1016.69
2018-07-13T05:07:04.479Z,1016.70
2018-07-13T05:08:04.515Z,1016.68
2018-07-13T05:09:04.295Z,1016.69
2018-07-13T05:10:04.205Z,1016.72
2018-07-13T05:11:04.152Z,1016.71
2018-07-13T05:12:04.074Z,1016.72
2018-07-13T05:13:03.959Z,1016.72
2018-07-13T05:14:03.918Z,1016.69
2018-07-13T05:15:03.804Z,1016.70
2018-07-13T05:16:03.731Z,1016.72
2018-07-13T05:17:03.679Z,1016.73
2018-07-13T05:18:03.563Z,1016.73
2018-07-13T05:19:03.487Z,1016.75
2018-07-13T05:20:03.404Z,1016.76
2018-07-13T05:21:03.314Z,1016.79
2018-07-13T05:22:03.286Z,1016.79
2018-07-13T05:23:03.174Z,1016.81
2018-07-13T05:24:03.099Z,1016.82
2018-07-13T05:25:03.003Z,1016.81
2018-07-13T05:26:02.929Z,1016.80
2018-07-13T05:27:02.853Z,1016.83
2018-07-13T05:28:02.804Z,1016.81
2018-07-13T05:29:02.689Z,1016.86
2018-07-13T05:30:02.637Z,1016.84
2018-07-13T05:31:02.525Z,1016.85
2018-07-13T05:32:02.457Z,1016.88
2018-07-13T05:33:02.394Z,1016.85
2018-07-13T05:34:02.293Z,1016.87
2018-07-13T05:35:02.207Z,1016.85
2018-07-13T05:36:02.138Z,1016.83
2018-07-13T05:37:02.076Z,1016.84
2018-07-13T05:38:02.002Z,1016.87
2018-07-13T05:39:01.905Z,1016.86
2018-07-13T05:40:01.833Z,1016.90
2018-07-13T05:41:01.744Z,1016.85
2018-07-13T05:42:01.674Z,1016.90
2018-07-13T05:43:01.602Z,1016.91
2018-07-13T05:45:43.879Z,1016.92
2018-07-13T05:46:43.805Z,1016.94
2018-07-13T05:47:43.740Z,1016.92
2018-07-13T06:14:05.385Z,1016.99
2018-07-13T06:15:05.386Z,1016.99
2018-07-13T06:16:05.207Z,1016.99
2018-07-13T06:17:05.137Z,1017.01
2018-07-13T06:18:05.045Z,1016.99
2018-07-13T06:19:04.985Z,1016.98
2018-07-13T06:20:04.901Z,1016.98
2018-07-13T06:21:04.848Z,1016.95
2018-07-13T06:22:04.752Z,1016.97
2018-07-13T06:23:04.657Z,1016.98
2018-07-13T06:24:04.586Z,1016.98
2018-07-13T06:25:04.497Z,1016.98
2018-07-13T06:26:04.444Z,1017.02
2018-07-13T06:27:04.397Z,1017.05
2018-07-13T06:28:04.264Z,1017.07
2018-07-13T06:29:04.184Z,1017.09
2018-07-13T06:30:04.101Z,1017.19
2018-07-13T06:31:04.068Z,1017.50
2018-07-13T06:32:03.959Z,1017.79
2018-07-13T06:33:03.879Z,1017.91
2018-07-13T06:34:03.799Z,1017.83
2018-07-13T06:35:03.749Z,1017.87
2018-07-13T06:36:03.650Z,1017.94
2018-07-13T06:37:03.544Z,1017.94
2018-07-13T06:38:03.496Z,1017.96
2018-07-13T06:39:03.394Z,1017.95
2018-07-13T06:40:03.326Z,1017.95
2018-07-13T06:41:03.282Z,1017.93
2018-07-13T06:42:03.153Z,1017.95
2018-07-13T06:43:03.088Z,1017.96
2018-07-13T06:44:03.042Z,1017.94
2018-07-13T06:45:02.937Z,1018.01
2018-07-13T06:46:02.851Z,1017.98
2018-07-13T06:47:02.808Z,1017.96
2018-07-13T06:48:02.699Z,1017.91
2018-07-13T06:49:02.631Z,1017.85
2018-07-13T06:50:02.549Z,1017.84
2018-07-13T06:51:02.500Z,1017.87
2018-07-13T06:52:02.434Z,1017.88
2018-07-13T06:53:02.354Z,1017.82
2018-07-13T06:54:02.248Z,1017.87
2018-07-13T06:55:02.181Z,1017.84
2018-07-13T06:56:02.093Z,1017.89
2018-07-13T06:57:02.075Z,1017.87
2018-07-13T06:58:01.943Z,1017.89
2018-07-13T07:00:43.916Z,1017.88
2018-07-13T07:03:25.912Z,1017.87
2018-07-13T07:04:25.830Z,1017.84
2018-07-13T07:05:25.752Z,1017.86
2018-07-13T07:31:47.664Z,1017.70
2018-07-13T07:34:30.102Z,1017.66
2018-07-13T07:35:29.841Z,1017.66
2018-07-13T07:36:29.793Z,1017.63
2018-07-13T07:37:29.705Z,1017.65
2018-07-13T07:38:29.728Z,1017.69
2018-07-13T07:39:29.658Z,1017.65
2018-07-13T07:40:29.491Z,1017.64
2018-07-13T07:41:29.450Z,1017.63
2018-07-13T07:42:29.347Z,1017.67
2018-07-13T07:43:29.282Z,1017.58
2018-07-13T07:44:29.208Z,1017.62
2018-07-13T07:45:29.147Z,1017.52
2018-07-13T07:46:29.095Z,1017.51
2018-07-13T07:47:29.054Z,1017.58
2018-07-13T07:48:28.932Z,1017.48
2018-07-13T07:49:28.878Z,1017.48
2018-07-13T07:50:28.796Z,1017.52
2018-07-13T07:51:28.738Z,1017.54
2018-07-13T07:52:28.659Z,1017.52
2018-07-13T07:53:28.594Z,1017.49
2018-07-13T07:54:28.550Z,1017.65
2018-07-13T07:55:28.453Z,1017.58
2018-07-13T07:56:28.406Z,1017.49
2018-07-13T07:57:28.377Z,1017.53
2018-07-13T08:02:51.348Z,1017.62
2018-07-13T08:03:51.282Z,1017.78
2018-07-13T08:04:51.187Z,1017.62
2018-07-13T08:05:51.138Z,1017.55
2018-07-13T08:06:52.243Z,1017.63
2018-07-13T08:07:50.987Z,1017.79
2018-07-13T08:08:50.932Z,1017.72
2018-07-13T08:09:50.829Z,1017.79
2018-07-13T08:10:50.764Z,1017.71
2018-07-13T08:11:50.688Z,1017.95
2018-07-13T08:12:51.690Z,1017.78
2018-07-13T08:13:50.755Z,1017.76
2018-07-13T08:16:32.443Z,1018.06
2018-07-13T08:17:32.410Z,1018.00
2018-07-13T08:18:32.293Z,1017.77
2018-07-13T08:19:32.266Z,1017.74
2018-07-13T08:20:33.003Z,1017.93
2018-07-13T08:21:32.086Z,1017.88
2018-07-13T08:22:32.196Z,1018.05
2018-07-13T08:23:32.001Z,1017.64
2018-07-13T08:24:31.889Z,1018.09
2018-07-13T08:25:31.849Z,1018.05
2018-07-13T08:26:31.767Z,1018.05
2018-07-13T08:27:31.688Z,1017.97
2018-07-13T08:28:31.624Z,1017.73
2018-07-13T08:29:31.555Z,1017.68
2018-07-13T08:30:31.477Z,1017.72
2018-07-13T08:31:31.414Z,1017.59
2018-07-13T08:32:31.349Z,1017.72
2018-07-13T08:33:31.313Z,1017.68
2018-07-13T08:34:31.217Z,1017.75
2018-07-13T08:35:31.156Z,1017.74
2018-07-13T08:36:31.081Z,1017.71
2018-07-13T08:37:31.109Z,1017.70
2018-07-13T08:38:31.008Z,1017.70
2018-07-13T08:39:30.877Z,1017.71
2018-07-13T08:40:30.825Z,1017.74
2018-07-13T08:41:31.504Z,1017.73
2018-07-13T08:42:30.674Z,1017.73
2018-07-13T08:43:30.800Z,1017.73
2018-07-13T08:44:30.572Z,1017.76
2018-07-13T08:45:30.497Z,1017.75
2018-07-13T08:46:30.403Z,1017.71
2018-07-13T08:47:30.374Z,1017.73
2018-07-13T08:48:30.279Z,1017.74
2018-07-13T08:49:30.246Z,1017.75
2018-07-13T08:50:30.196Z,1017.75
2018-07-13T08:53:12.433Z,1017.76
2018-07-13T08:54:12.409Z,1017.78
2018-07-13T08:55:12.342Z,1017.76
2018-07-13T08:56:12.319Z,1017.79
2018-07-13T08:57:12.211Z,1017.78
2018-07-13T08:58:12.128Z,1017.75
2018-07-13T08:59:12.042Z,1017.78
2018-07-13T09:00:13.093Z,1017.77
2018-07-13T09:01:11.914Z,1017.80
2018-07-13T09:02:11.868Z,1017.77
2018-07-13T09:03:11.784Z,1017.78
2018-07-13T09:04:11.791Z,1017.80
2018-07-13T09:05:11.714Z,1017.79
2018-07-13T09:06:11.581Z,1017.73
2018-07-13T09:07:11.510Z,1017.83
2018-07-13T09:08:11.472Z,1017.87
2018-07-13T09:09:11.392Z,1017.84
2018-07-13T09:10:11.347Z,1017.89
2018-07-13T09:11:11.253Z,1017.87
2018-07-13T09:12:11.226Z,1017.90
2018-07-13T09:13:11.143Z,1017.90
2018-07-13T09:14:11.063Z,1017.90
2018-07-13T09:15:11.016Z,1017.90
2018-07-13T09:16:10.930Z,1017.93
2018-07-13T09:17:10.876Z,1017.91
2018-07-13T09:18:10.866Z,1017.92
2018-07-13T09:19:10.732Z,1017.94
2018-07-13T09:20:10.715Z,1017.96
2018-07-13T09:21:10.601Z,1017.97
2018-07-13T09:22:10.543Z,1018.03
2018-07-13T09:23:10.466Z,1018.00
2018-07-13T09:24:10.475Z,1017.98
2018-07-13T09:25:10.353Z,1018.02
2018-07-13T09:26:11.299Z,1018.00
2018-07-13T09:27:10.233Z,1018.04
2018-07-13T09:28:10.166Z,1018.05
2018-07-13T09:29:10.143Z,1018.05
2018-07-13T09:30:10.038Z,1018.06
2018-07-13T09:31:09.978Z,1018.08
2018-07-13T09:32:09.991Z,1018.04
2018-07-13T09:33:09.835Z,1018.03
2018-07-13T09:34:09.812Z,1018.06
2018-07-13T09:35:09.691Z,1018.01
2018-07-13T09:36:09.759Z,1018.02
2018-07-13T09:37:15.617Z,1018.05
2018-07-13T09:38:09.499Z,1018.06
2018-07-13T09:39:09.424Z,1018.09
2018-07-13T09:40:09.367Z,1018.12
2018-07-13T09:41:09.481Z,1017.87
2018-07-13T09:43:51.462Z,1017.94
2018-07-13T09:44:51.426Z,1018.11
2018-07-13T09:45:51.387Z,1017.92
2018-07-13T09:46:51.365Z,1018.11
2018-07-13T09:47:51.204Z,1018.16
2018-07-13T09:50:33.491Z,1018.13
2018-07-13T09:51:33.462Z,1018.16
2018-07-13T09:52:33.356Z,1018.12
2018-07-13T09:53:33.307Z,1018.14
2018-07-13T09:54:33.236Z,1018.14
2018-07-13T09:55:33.167Z,1018.18
2018-07-13T09:56:33.147Z,1018.17
2018-07-13T09:59:14.981Z,1018.15
2018-07-13T10:01:56.997Z,1018.14
2018-07-13T10:04:38.967Z,1018.13
2018-07-13T10:05:38.980Z,1018.11
2018-07-13T10:06:38.864Z,1018.10
2018-07-13T10:07:38.816Z,1018.10
2018-07-13T10:08:38.739Z,1018.09
2018-07-13T10:27:36.897Z,1018.05
2018-07-13T10:30:19.032Z,1018.01
2018-07-13T10:31:18.914Z,1018.03
2018-07-13T10:32:18.859Z,1017.99
2018-07-13T10:35:01.000Z,1018.00
2018-07-13T10:37:43.014Z,1017.92
2018-07-13T10:38:42.933Z,1017.91
2018-07-13T10:39:42.866Z,1017.92
2018-07-13T10:42:25.007Z,1017.88
2018-07-13T10:43:24.930Z,1017.90
2018-07-13T10:44:24.890Z,1017.82
2018-07-13T10:45:24.810Z,1017.86
2018-07-13T10:46:24.744Z,1017.71
2018-07-13T10:47:24.702Z,1017.90
2018-07-13T10:48:24.619Z,1017.85
2018-07-13T10:49:24.553Z,1017.68
2018-07-13T10:50:24.499Z,1017.74
2018-07-13T10:51:24.483Z,1017.77
2018-07-13T10:52:24.352Z,1017.82
2018-07-13T10:53:24.305Z,1017.77
2018-07-13T10:54:24.265Z,1017.84
2018-07-13T10:55:24.235Z,1017.77
2018-07-13T10:56:24.116Z,1017.79
2018-07-13T10:57:24.068Z,1017.75
2018-07-13T10:58:23.998Z,1017.77
2018-07-13T10:59:24.043Z,1017.80
2018-07-13T11:00:23.862Z,1017.76
2018-07-13T11:01:23.806Z,1017.75
2018-07-13T11:02:23.734Z,1017.73
2018-07-13T11:03:23.737Z,1017.69
2018-07-13T11:04:23.645Z,1017.73
2018-07-13T11:05:23.587Z,1017.67
2018-07-13T11:06:23.519Z,1017.65
2018-07-13T11:09:05.494Z,1017.72
2018-07-13T11:10:05.439Z,1017.72
2018-07-13T11:11:05.415Z,1017.67
2018-07-13T11:13:47.540Z,1017.68
2018-07-13T11:14:47.453Z,1017.70
2018-07-13T11:15:47.374Z,1017.66
2018-07-13T11:19:30.552Z,1017.71
2018-07-13T11:20:30.445Z,1017.70
2018-07-13T11:21:30.413Z,1017.72
2018-07-13T11:22:30.318Z,1017.63
2018-07-13T11:23:30.244Z,1017.58
2018-07-13T11:24:30.197Z,1017.62
2018-07-13T11:25:30.127Z,1017.58
2018-07-13T11:26:30.109Z,1017.59
2018-07-13T11:27:29.995Z,1017.55
2018-07-13T11:28:29.978Z,1017.55
2018-07-13T11:29:29.907Z,1017.58
2018-07-13T11:30:29.812Z,1017.55
2018-07-13T11:31:29.847Z,1017.50
2018-07-13T11:32:29.722Z,1017.54
2018-07-13T11:33:29.616Z,1017.53
2018-07-13T11:34:29.560Z,1017.49
2018-07-13T11:35:30.529Z,1017.55
2018-07-13T11:36:29.451Z,1017.52
2018-07-13T11:37:29.374Z,1017.52
2018-07-13T11:38:29.313Z,1017.52
2018-07-13T11:39:29.242Z,1017.44
2018-07-13T11:40:29.180Z,1017.49
2018-07-13T11:41:29.138Z,1017.44
2018-07-13T11:42:29.118Z,1017.43
2018-07-13T11:43:28.990Z,1017.48
2018-07-13T11:44:28.926Z,1017.46
2018-07-13T11:45:29.906Z,1017.43
2018-07-13T11:46:28.790Z,1017.48
2018-07-13T11:47:28.775Z,1017.46
2018-07-13T11:48:28.672Z,1017.31
2018-07-13T11:49:28.616Z,1017.00
2018-07-13T11:50:28.556Z,1016.98
2018-07-13T11:51:28.487Z,1016.94
2018-07-13T11:52:28.442Z,1016.94
2018-07-13T11:55:10.511Z,1016.83
2018-07-13T11:56:10.452Z,1016.77
2018-07-13T11:57:10.419Z,1016.80
2018-07-13T11:59:52.519Z,1016.73
2018-07-13T12:00:52.519Z,1016.73
2018-07-13T12:01:52.497Z,1016.70
2018-07-13T12:02:52.317Z,1016.70
2018-07-13T12:03:52.241Z,1016.64
2018-07-13T12:04:52.194Z,1016.62
2018-07-13T12:05:52.133Z,1016.68
2018-07-13T12:06:52.061Z,1016.66
2018-07-13T12:07:52.032Z,1016.69
2018-07-13T12:08:51.919Z,1016.68
2018-07-13T12:09:51.859Z,1016.62
2018-07-13T12:10:51.803Z,1016.65
2018-07-13T12:11:51.751Z,1016.63
2018-07-13T12:12:51.676Z,1016.62
2018-07-13T12:13:51.588Z,1016.60
2018-07-13T12:16:33.522Z,1016.54
2018-07-13T12:19:15.552Z,1016.50
2018-07-13T12:20:15.464Z,1016.47
2018-07-13T12:21:15.439Z,1016.50
2018-07-13T12:22:15.317Z,1016.44
2018-07-13T12:23:15.248Z,1016.43
2018-07-13T12:24:15.214Z,1016.46
2018-07-13T12:25:15.104Z,1016.42
2018-07-13T12:26:15.033Z,1016.43
2018-07-13T12:27:14.958Z,1016.41
2018-07-13T12:28:14.886Z,1016.42
2018-07-13T12:29:14.815Z,1016.41
2018-07-13T12:30:14.745Z,1016.44
2018-07-13T12:31:14.670Z,1016.42
2018-07-13T12:33:56.529Z,1016.41
2018-07-13T12:36:38.519Z,1016.40
2018-07-13T12:39:20.538Z,1016.38
2018-07-13T12:40:20.459Z,1016.34
2018-07-13T12:41:20.378Z,1016.35
2018-07-13T12:42:20.301Z,1016.28
2018-07-13T12:43:20.250Z,1016.28
2018-07-13T12:44:20.187Z,1016.27
2018-07-13T12:45:20.079Z,1016.28
2018-07-13T12:46:20.028Z,1016.32
2018-07-13T12:47:19.950Z,1016.30
2018-07-13T12:50:02.074Z,1016.29
2018-07-13T12:51:01.962Z,1016.25
2018-07-13T12:52:01.877Z,1016.29
2018-07-13T12:54:44.155Z,1016.21
2018-07-13T12:55:43.992Z,1016.23
2018-07-13T12:56:43.892Z,1016.18
2018-07-13T12:57:43.819Z,1016.18
2018-07-13T12:58:43.752Z,1016.26
2018-07-13T12:59:43.711Z,1016.23
2018-07-13T13:00:43.712Z,1016.24
2018-07-13T13:03:25.543Z,1016.24
2018-07-13T13:04:25.491Z,1016.22
2018-07-13T13:05:25.479Z,1016.21
2018-07-13T13:06:25.355Z,1016.25
2018-07-13T13:07:25.246Z,1016.20
2018-07-13T13:08:25.199Z,1016.20
2018-07-13T13:09:25.121Z,1016.21
2018-07-13T13:10:26.092Z,1016.24
2018-07-13T13:11:24.968Z,1016.25
2018-07-13T13:12:24.893Z,1016.20
2018-07-13T13:13:24.825Z,1016.23
2018-07-13T13:14:24.821Z,1016.20
2018-07-13T13:15:24.735Z,1016.19
2018-07-13T13:16:25.639Z,1016.21
2018-07-13T13:17:24.532Z,1016.19
2018-07-13T13:18:24.459Z,1016.20
2018-07-13T13:19:24.398Z,1016.17
2018-07-13T13:20:24.333Z,1016.13
2018-07-13T13:21:24.258Z,1016.14
2018-07-13T13:22:24.179Z,1016.17
2018-07-13T13:23:24.103Z,1016.11
2018-07-13T13:24:24.053Z,1016.12
2018-07-13T13:25:23.941Z,1016.10
2018-07-13T13:26:23.908Z,1016.09
2018-07-13T13:27:23.805Z,1016.09
2018-07-13T13:28:23.743Z,1016.15
2018-07-13T13:29:23.683Z,1016.15
2018-07-13T13:32:05.576Z,1016.10
2018-07-13T13:34:47.560Z,1016.10
2018-07-13T13:35:47.481Z,1016.09
2018-07-13T13:36:47.519Z,1016.09
2018-07-13T13:37:47.350Z,1016.06
2018-07-13T13:38:47.253Z,1016.11
2018-07-13T13:39:47.194Z,1016.09
2018-07-13T13:40:47.119Z,1016.10
2018-07-13T13:41:47.065Z,1016.11
2018-07-13T13:42:46.971Z,1016.09
2018-07-13T13:43:46.902Z,1016.08
2018-07-13T13:44:46.820Z,1016.09
2018-07-13T13:45:46.763Z,1016.08
2018-07-13T13:46:46.704Z,1016.07
2018-07-13T13:47:47.622Z,1016.06
2018-07-13T13:48:46.559Z,1016.01
2018-07-13T13:49:46.474Z,1016.02
2018-07-13T13:50:46.376Z,1016.06
2018-07-13T13:51:46.326Z,1016.03
2018-07-13T13:52:46.225Z,1015.99
2018-07-13T13:55:28.555Z,1016.01
2018-07-13T13:56:28.469Z,1015.99
2018-07-13T13:57:28.433Z,1016.05
2018-07-13T13:58:28.385Z,1016.01
2018-07-13T13:59:28.272Z,1016.01
2018-07-13T14:02:10.568Z,1015.99
2018-07-13T14:03:10.513Z,1015.94
2018-07-13T14:04:10.438Z,1015.91
2018-07-13T14:05:10.399Z,1015.87
2018-07-13T14:06:10.268Z,1015.90
2018-07-13T14:07:10.193Z,1015.92
2018-07-13T14:08:10.150Z,1015.93
2018-07-13T14:10:52.061Z,1015.87
2018-07-13T14:11:51.996Z,1015.90
2018-07-13T14:12:51.937Z,1015.89
2018-07-13T14:13:51.877Z,1015.85
2018-07-13T14:14:51.827Z,1015.85
2018-07-13T14:15:51.704Z,1015.89
2018-07-13T14:16:51.635Z,1015.86
2018-07-13T14:17:51.570Z,1015.84
2018-07-13T14:18:51.526Z,1015.84
2018-07-13T14:19:51.426Z,1015.82
2018-07-13T14:20:51.330Z,1015.79
2018-07-13T14:21:51.289Z,1015.88
2018-07-13T14:22:51.186Z,1015.84
2018-07-13T14:23:51.155Z,1015.84
2018-07-13T14:24:51.049Z,1015.85
2018-07-13T14:25:51.004Z,1015.83
2018-07-13T14:26:50.930Z,1015.85
2018-07-13T14:27:50.836Z,1015.82
2018-07-13T14:28:50.773Z,1015.84
2018-07-13T14:29:50.745Z,1015.81
2018-07-13T14:30:50.599Z,1015.83
2018-07-13T14:31:50.531Z,1015.78
2018-07-13T14:32:50.451Z,1015.77
2018-07-13T14:33:50.420Z,1015.80
2018-07-13T14:34:50.305Z,1015.80
2018-07-13T14:35:50.241Z,1015.79
2018-07-13T14:36:50.168Z,1015.72
2018-07-13T14:37:50.112Z,1015.79
2018-07-13T14:38:50.023Z,1015.78
2018-07-13T14:39:51.007Z,1015.76
2018-07-13T14:40:49.907Z,1015.71
2018-07-13T14:41:49.823Z,1015.73
2018-07-13T14:42:49.737Z,1015.70
2018-07-13T14:43:49.705Z,1015.75
2018-07-13T14:44:49.699Z,1015.69
2018-07-13T14:45:49.553Z,1015.71
2018-07-13T14:46:49.534Z,1015.73
2018-07-13T14:47:49.380Z,1015.71
2018-07-13T14:48:49.293Z,1015.70
2018-07-13T14:49:49.264Z,1015.65
2018-07-13T14:50:49.177Z,1015.68
2018-07-13T14:51:49.088Z,1015.68
2018-07-13T14:52:49.010Z,1015.65
2018-07-13T14:53:49.982Z,1015.65
2018-07-13T14:54:48.871Z,1015.64
2018-07-13T14:55:48.804Z,1015.66
2018-07-13T14:56:48.754Z,1015.64
2018-07-13T14:57:48.657Z,1015.62
2018-07-13T14:58:48.584Z,1015.61
2018-07-13T14:59:48.607Z,1015.61
2018-07-13T15:00:48.452Z,1015.56
2018-07-13T15:01:48.376Z,1015.59
2018-07-13T15:02:48.303Z,1015.60
2018-07-13T15:03:48.265Z,1015.57
2018-07-13T15:04:48.130Z,1015.56
2018-07-13T15:05:48.144Z,1015.55
2018-07-13T15:06:48.013Z,1015.54
2018-07-13T15:09:30.077Z,1015.48
2018-07-13T15:10:30.016Z,1015.47
2018-07-13T15:11:29.955Z,1015.47
2018-07-13T15:12:29.888Z,1015.49
2018-07-13T15:13:29.786Z,1015.51
2018-07-13T15:16:12.111Z,1015.50
2018-07-13T15:17:12.048Z,1015.53
2018-07-13T15:18:11.953Z,1015.51
2018-07-13T15:19:11.900Z,1015.47
2018-07-13T15:20:11.805Z,1015.50
2018-07-13T15:22:54.143Z,1015.53
2018-07-13T15:23:54.033Z,1015.51
2018-07-13T15:24:53.970Z,1015.52
2018-07-13T15:27:36.127Z,1015.47
2018-07-13T15:28:37.060Z,1015.46
2018-07-13T15:29:35.969Z,1015.46
2018-07-13T15:30:35.881Z,1015.45
2018-07-13T15:31:35.807Z,1015.43
2018-07-13T15:32:35.776Z,1015.40
2018-07-13T15:33:35.786Z,1015.44
2018-07-13T15:34:35.605Z,1015.40
2018-07-13T15:35:35.505Z,1015.40
2018-07-13T15:36:35.452Z,1015.37
2018-07-13T15:37:35.405Z,1015.39